KEKO

Elko Regional Airport

Airport
ICAO code
KEKO
Summary
ICAO Region
NAM
ICAO Territory
Location

Elko, Nevada,

Elevation
5140 ft
Coordinates
40° 49' 28" N , 115° 47' 30" W
KCC
Airport CFIT
Altimeter Temperature Error Correction
Airport RE
Hot and High Operations
Airport WX
Cumulonimbus
Metar
Observation
KEKO 311856Z AUTO 26013G22KT 10SM OVC070 06/M04 A3009 RMK AO2 PK WND 23026/1800 SLP195 T00611044
Station
Elko, Elko Regional Airport
Date/Time
2023-03-31 18:56:00
Wind direction
260°
Wind speed
13 kts
Lowest cloud amount
overcast
Temperature
6.1°C
Dew point
-4.4°C
Humidity
46%
Weather condition
n/a

Description

Elko Regional Airport, formerly Elko Municipal Airport, is a public airport located 1.6 km west of Elko, in Elko County, Nevada.

Climatology

Semi-arid climate (Köppen climate classification BSk). - Hot, sometimes extremely hot summers and cool, sometimes cold winters. Some snowfall during the winter. Areas featuring semi-arid climates are sometimes subject to major temperature swings during a 24 hour period.

Very little rainfall but thunderstorms can occur at all times of the year. Occasional dust storms.

Airport map

Aerial View

SKYbrary Partners:

Safety knowledge contributed by: